Time;durP1;ratioP1;P1;durP2;ratioP2;P2;SDS_P1;SDS_P2;PMS_P1;PMS_P2;Temp;Humidity;BMP_temperature;BMP_pressure;BME280_temperature;BME280_humidity;BME280_pressure;Samples;Min_cycle;Max_cycle;Signal;HPM_P1;HPM_P2
2023/05/13 00:00:48;;;;;;;10.93;7.28;;;;;;;;;;5064697;28;20021;-77
2023/05/13 00:03:14;;;;;;;9.32;7.25;;;;;;;;;;5065308;28;20115;-77
2023/05/13 00:05:40;;;;;;;10.00;7.15;;;;;;;;;;5075750;28;20025;-77
2023/05/13 00:08:06;;;;;;;10.77;6.95;;;;;;;;;;5065204;28;20449;-78
2023/05/13 00:10:35;;;;;;;13.50;7.53;;;;;;;;;;5059826;28;20066;-78
2023/05/13 00:13:01;;;;;;;10.43;7.00;;;;;;;;;;5060460;28;20545;-78
2023/05/13 00:15:28;;;;;;;10.68;6.72;;;;;;;;;;5060601;28;20509;-78
2023/05/13 00:17:54;;;;;;;7.63;6.78;;;;;;;;;;5060751;28;20028;-78
2023/05/13 00:20:20;;;;;;;9.45;6.45;;;;;;;;;;5065663;28;20032;-77
2023/05/13 00:22:46;;;;;;;10.88;6.25;;;;;;;;;;5065778;28;20106;-77
2023/05/13 00:25:12;;;;;;;10.88;7.30;;;;;;;;;;5064618;28;20036;-78
2023/05/13 00:27:39;;;;;;;8.85;6.88;;;;;;;;;;5061486;28;20110;-78
2023/05/13 00:30:05;;;;;;;11.25;7.30;;;;;;;;;;5061045;28;20501;-78
2023/05/13 00:32:31;;;;;;;8.50;6.80;;;;;;;;;;5075433;28;20469;-78
2023/05/13 00:34:57;;;;;;;8.95;6.65;;;;;;;;;;5056681;28;20025;-77
2023/05/13 00:37:23;;;;;;;12.23;6.80;;;;;;;;;;5058231;28;20032;-77
2023/05/13 00:39:49;;;;;;;10.57;6.57;;;;;;;;;;5079392;28;20063;-76
2023/05/13 00:42:16;;;;;;;10.57;7.13;;;;;;;;;;5058808;28;20453;-77
2023/05/13 00:44:42;;;;;;;12.13;6.90;;;;;;;;;;5061974;28;20056;-78
2023/05/13 00:47:10;;;;;;;7.95;6.53;;;;;;;;;;5064907;28;20039;-77
2023/05/13 00:49:36;;;;;;;11.75;7.40;;;;;;;;;;5059095;28;20039;-78
2023/05/13 00:52:02;;;;;;;11.40;7.25;;;;;;;;;;5066010;28;20285;-78
2023/05/13 00:54:29;;;;;;;11.60;7.32;;;;;;;;;;5058901;28;20040;-77
2023/05/13 00:56:55;;;;;;;13.55;8.20;;;;;;;;;;5058725;28;20032;-78
2023/05/13 00:59:26;;;;;;;13.05;7.22;;;;;;;;;;5065817;28;20025;-78
2023/05/13 01:02:16;;;;;;;10.27;7.47;;;;;;;;;;5062953;28;20509;-77
2023/05/13 01:04:45;;;;;;;11.00;7.53;;;;;;;;;;5058381;28;20371;-78
2023/05/13 01:07:18;;;;;;;11.77;7.80;;;;;;;;;;5060389;28;20060;-77
2023/05/13 01:09:48;;;;;;;10.88;8.05;;;;;;;;;;5063146;28;20397;-77
2023/05/13 01:12:20;;;;;;;11.10;8.13;;;;;;;;;;5057422;28;20277;-78
2023/05/13 01:14:54;;;;;;;12.52;8.27;;;;;;;;;;5056074;28;20037;-78
2023/05/13 01:17:28;;;;;;;12.23;7.82;;;;;;;;;;5060812;28;20036;-77
2023/05/13 01:19:58;;;;;;;14.55;9.05;;;;;;;;;;5064641;28;20029;-78
2023/05/13 01:22:24;;;;;;;12.88;7.95;;;;;;;;;;5062152;28;20509;-77
2023/05/13 01:24:50;;;;;;;10.73;7.60;;;;;;;;;;5064130;28;20669;-78
2023/05/13 01:27:16;;;;;;;11.68;7.35;;;;;;;;;;5068365;28;20040;-79
2023/05/13 01:29:43;;;;;;;12.43;8.13;;;;;;;;;;5065696;28;20021;-78
2023/05/13 01:32:10;;;;;;;11.02;7.70;;;;;;;;;;5062542;28;20032;-78
2023/05/13 01:34:36;;;;;;;12.98;8.23;;;;;;;;;;5064933;28;20032;-77
2023/05/13 01:37:03;;;;;;;12.52;8.02;;;;;;;;;;5060953;28;20031;-77
2023/05/13 01:39:30;;;;;;;11.50;7.55;;;;;;;;;;5057005;28;20025;-77
2023/05/13 01:41:56;;;;;;;10.45;7.47;;;;;;;;;;5058223;28;20033;-77
2023/05/13 01:44:22;;;;;;;13.48;7.85;;;;;;;;;;5064986;28;20025;-77
2023/05/13 01:46:52;;;;;;;12.88;7.80;;;;;;;;;;5067496;28;20087;-78
2023/05/13 01:49:18;;;;;;;12.75;7.22;;;;;;;;;;5066101;28;20105;-78
2023/05/13 01:51:44;;;;;;;11.60;7.45;;;;;;;;;;5067511;28;20028;-77
2023/05/13 01:54:10;;;;;;;12.98;7.45;;;;;;;;;;5061202;28;20117;-78
2023/05/13 01:56:38;;;;;;;11.68;7.60;;;;;;;;;;5068166;28;20486;-76
2023/05/13 01:59:04;;;;;;;11.05;6.80;;;;;;;;;;5089774;28;20115;-77
2023/05/13 02:01:30;;;;;;;12.60;7.78;;;;;;;;;;5063556;28;20067;-78
2023/05/13 02:03:59;;;;;;;11.95;8.18;;;;;;;;;;5057545;28;20036;-77
2023/05/13 02:06:26;;;;;;;12.32;8.55;;;;;;;;;;5062326;28;20385;-77
2023/05/13 02:08:53;;;;;;;12.32;7.78;;;;;;;;;;5058430;28;20028;-78
2023/05/13 02:11:19;;;;;;;10.85;8.15;;;;;;;;;;5061948;28;20073;-77
2023/05/13 02:13:45;;;;;;;11.82;8.07;;;;;;;;;;5064902;28;20032;-77
2023/05/13 02:16:16;;;;;;;9.57;7.15;;;;;;;;;;5053227;28;20366;-77
2023/05/13 02:18:42;;;;;;;12.40;8.27;;;;;;;;;;5079014;28;20028;-78
2023/05/13 02:21:08;;;;;;;12.48;8.30;;;;;;;;;;5062485;28;20509;-77
2023/05/13 02:23:34;;;;;;;14.35;8.00;;;;;;;;;;5061879;28;20047;-78
2023/05/13 02:26:00;;;;;;;10.32;7.15;;;;;;;;;;5059517;28;20032;-77
2023/05/13 02:28:26;;;;;;;9.88;6.72;;;;;;;;;;5062518;28;20039;-77
2023/05/13 02:30:52;;;;;;;9.02;6.53;;;;;;;;;;5053679;28;20109;-77
2023/05/13 02:33:18;;;;;;;11.90;7.53;;;;;;;;;;5060737;28;20036;-78
2023/05/13 02:35:44;;;;;;;8.88;6.75;;;;;;;;;;5059734;28;20478;-77
2023/05/13 02:38:11;;;;;;;9.48;6.50;;;;;;;;;;5063404;28;20044;-78
2023/05/13 02:40:37;;;;;;;9.70;6.63;;;;;;;;;;5056783;28;20384;-77
2023/05/13 02:43:03;;;;;;;10.65;6.90;;;;;;;;;;5060824;28;20570;-78
2023/05/13 02:45:29;;;;;;;9.68;6.07;;;;;;;;;;5061667;28;20490;-78
2023/05/13 02:47:56;;;;;;;9.30;6.70;;;;;;;;;;5063082;28;20028;-78
2023/05/13 02:50:22;;;;;;;9.70;6.53;;;;;;;;;;5063998;28;20056;-77
2023/05/13 02:52:48;;;;;;;11.93;7.03;;;;;;;;;;5078355;28;20355;-78
2023/05/13 02:55:14;;;;;;;8.98;6.28;;;;;;;;;;5055639;28;20745;-78
2023/05/13 02:57:40;;;;;;;8.88;6.18;;;;;;;;;;5056774;28;20037;-77
2023/05/13 03:00:07;;;;;;;9.23;6.10;;;;;;;;;;5063241;28;20479;-76
2023/05/13 03:02:33;;;;;;;7.82;5.95;;;;;;;;;;5062551;28;20032;-77
2023/05/13 03:04:59;;;;;;;8.48;5.85;;;;;;;;;;5058573;28;20029;-76
2023/05/13 03:07:25;;;;;;;10.20;6.60;;;;;;;;;;5062083;28;20031;-76
2023/05/13 03:09:51;;;;;;;8.82;6.60;;;;;;;;;;5068607;28;20027;-77
2023/05/13 03:12:18;;;;;;;8.45;6.20;;;;;;;;;;5066512;28;20029;-77
2023/05/13 03:14:44;;;;;;;8.77;6.63;;;;;;;;;;5066685;28;20017;-77
2023/05/13 03:17:10;;;;;;;8.65;5.70;;;;;;;;;;5057247;28;20036;-78
2023/05/13 03:19:37;;;;;;;8.43;6.22;;;;;;;;;;5063920;28;20016;-77
2023/05/13 03:22:03;;;;;;;11.30;7.65;;;;;;;;;;5064141;28;20562;-77
2023/05/13 03:24:29;;;;;;;10.00;7.25;;;;;;;;;;5066004;28;20030;-77
2023/05/13 03:26:56;;;;;;;10.07;6.35;;;;;;;;;;5063617;28;20111;-77
2023/05/13 03:29:22;;;;;;;8.80;6.43;;;;;;;;;;5055379;28;20595;-76
2023/05/13 03:31:49;;;;;;;11.18;7.20;;;;;;;;;;5067080;28;20102;-77
2023/05/13 03:34:15;;;;;;;12.32;6.75;;;;;;;;;;5063329;28;20470;-77
2023/05/13 03:36:41;;;;;;;9.05;6.63;;;;;;;;;;5065770;28;20033;-77
2023/05/13 03:39:07;;;;;;;10.25;6.85;;;;;;;;;;5066611;28;20028;-76
2023/05/13 03:41:34;;;;;;;11.18;6.40;;;;;;;;;;5071983;28;20024;-77
2023/05/13 03:44:01;;;;;;;11.43;6.13;;;;;;;;;;5070613;28;20041;-77
2023/05/13 03:46:27;;;;;;;8.15;5.80;;;;;;;;;;5064471;28;20029;-76
2023/05/13 03:48:54;;;;;;;11.73;7.38;;;;;;;;;;5065760;28;20036;-76
2023/05/13 03:51:21;;;;;;;25.67;7.93;;;;;;;;;;5063742;28;20035;-76
2023/05/13 03:53:47;;;;;;;9.40;6.82;;;;;;;;;;5069253;28;20036;-77
2023/05/13 03:56:13;;;;;;;10.68;6.80;;;;;;;;;;5069892;28;20063;-77
2023/05/13 03:58:39;;;;;;;10.93;7.65;;;;;;;;;;5065630;28;20083;-76
2023/05/13 04:01:06;;;;;;;11.93;6.97;;;;;;;;;;5069812;28;20119;-76
2023/05/13 04:03:33;;;;;;;9.40;7.45;;;;;;;;;;5065631;28;20032;-76
2023/05/13 04:05:59;;;;;;;9.90;7.10;;;;;;;;;;5061359;28;20667;-77
2023/05/13 04:08:25;;;;;;;10.82;7.18;;;;;;;;;;5063379;28;20104;-77
2023/05/13 04:10:52;;;;;;;10.30;7.28;;;;;;;;;;5063230;28;20022;-77
2023/05/13 04:13:18;;;;;;;11.05;7.38;;;;;;;;;;5054007;28;20052;-77
2023/05/13 04:15:44;;;;;;;9.73;6.65;;;;;;;;;;5066395;28;20028;-77
2023/05/13 04:18:10;;;;;;;11.70;7.13;;;;;;;;;;5066909;28;20089;-77
2023/05/13 04:20:39;;;;;;;12.38;7.47;;;;;;;;;;5075855;28;20034;-77
2023/05/13 04:23:06;;;;;;;15.65;7.95;;;;;;;;;;5064418;28;20094;-76
2023/05/13 04:25:32;;;;;;;17.23;8.40;;;;;;;;;;5067886;28;20025;-78
2023/05/13 04:27:58;;;;;;;40.97;9.25;;;;;;;;;;5061586;28;20032;-77
2023/05/13 04:30:24;;;;;;;55.00;9.40;;;;;;;;;;5059765;28;20028;-77
2023/05/13 04:32:50;;;;;;;53.95;10.73;;;;;;;;;;5065219;28;20633;-77
2023/05/13 04:35:16;;;;;;;72.97;11.60;;;;;;;;;;5065946;28;20033;-78
2023/05/13 04:37:42;;;;;;;65.97;10.98;;;;;;;;;;5064331;28;20020;-77
2023/05/13 04:40:08;;;;;;;56.38;9.80;;;;;;;;;;5064955;28;20060;-76
2023/05/13 04:42:34;;;;;;;78.72;10.00;;;;;;;;;;5061408;28;20039;-76
2023/05/13 04:45:00;;;;;;;117.93;11.75;;;;;;;;;;5063035;28;20493;-77
2023/05/13 04:47:26;;;;;;;61.65;7.93;;;;;;;;;;5060551;28;20086;-77
2023/05/13 04:49:52;;;;;;;111.18;11.65;;;;;;;;;;5055361;28;20028;-77
2023/05/13 04:52:19;;;;;;;42.00;8.18;;;;;;;;;;5061137;28;20032;-77
2023/05/13 04:54:45;;;;;;;65.25;9.85;;;;;;;;;;5062494;28;20044;-77
2023/05/13 04:57:11;;;;;;;94.70;9.85;;;;;;;;;;5061435;28;20591;-76
2023/05/13 04:59:37;;;;;;;82.70;9.75;;;;;;;;;;5058594;28;20036;-77
2023/05/13 05:02:03;;;;;;;52.15;7.85;;;;;;;;;;5052740;28;20029;-77
2023/05/13 05:04:29;;;;;;;42.03;7.93;;;;;;;;;;5057776;28;20040;-77
2023/05/13 05:06:55;;;;;;;52.13;8.32;;;;;;;;;;5052498;28;20032;-76
2023/05/13 05:09:21;;;;;;;52.67;7.82;;;;;;;;;;5058762;28;20036;-77
2023/05/13 05:11:49;;;;;;;42.83;8.05;;;;;;;;;;5056552;28;20094;-77
2023/05/13 05:14:15;;;;;;;51.30;8.68;;;;;;;;;;5063499;28;20094;-77
2023/05/13 05:16:41;;;;;;;71.32;8.23;;;;;;;;;;5064728;28;20072;-77
2023/05/13 05:19:07;;;;;;;44.03;8.55;;;;;;;;;;5058951;28;20383;-78
2023/05/13 05:21:33;;;;;;;80.07;9.38;;;;;;;;;;5061649;28;20036;-77
2023/05/13 05:24:00;;;;;;;58.20;8.27;;;;;;;;;;5063428;28;20033;-78
2023/05/13 05:26:26;;;;;;;51.25;8.48;;;;;;;;;;5057068;28;20382;-78
2023/05/13 05:28:53;;;;;;;38.67;8.32;;;;;;;;;;5059938;28;20029;-77
2023/05/13 05:31:19;;;;;;;37.35;7.65;;;;;;;;;;5064557;28;20063;-77
2023/05/13 05:33:45;;;;;;;57.45;8.18;;;;;;;;;;5063304;28;20036;-76
2023/05/13 05:36:11;;;;;;;41.90;9.18;;;;;;;;;;5065793;28;20137;-77
2023/05/13 05:38:37;;;;;;;56.78;8.05;;;;;;;;;;5065626;28;20040;-78
2023/05/13 05:41:04;;;;;;;67.82;8.25;;;;;;;;;;5080794;28;20036;-77
2023/05/13 05:43:30;;;;;;;104.35;9.93;;;;;;;;;;5059819;28;20088;-78
2023/05/13 05:45:56;;;;;;;32.90;6.72;;;;;;;;;;5051264;28;20044;-77
2023/05/13 05:48:22;;;;;;;61.20;8.32;;;;;;;;;;5056331;28;20423;-77
2023/05/13 05:50:56;;;;;;;16.55;7.40;;;;;;;;;;5061999;28;20029;-77
2023/05/13 05:53:22;;;;;;;19.77;6.40;;;;;;;;;;5062868;28;20119;-77
2023/05/13 05:55:48;;;;;;;16.67;7.05;;;;;;;;;;5061757;28;20025;-77
2023/05/13 05:58:17;;;;;;;21.95;6.80;;;;;;;;;;5056402;28;20033;-77
2023/05/13 06:00:43;;;;;;;20.20;7.88;;;;;;;;;;5062364;28;20032;-77
2023/05/13 06:03:09;;;;;;;15.55;6.20;;;;;;;;;;5057867;28;20032;-77
2023/05/13 06:05:35;;;;;;;30.63;7.05;;;;;;;;;;5055353;28;20062;-77
2023/05/13 06:08:01;;;;;;;13.38;6.20;;;;;;;;;;5063425;28;20024;-77
2023/05/13 06:10:27;;;;;;;48.70;7.05;;;;;;;;;;5055875;28;20040;-76
2023/05/13 06:12:54;;;;;;;44.47;6.78;;;;;;;;;;5057326;28;20039;-76
2023/05/13 06:15:20;;;;;;;21.33;7.07;;;;;;;;;;5052216;28;20028;-77
2023/05/13 06:17:46;;;;;;;40.30;6.97;;;;;;;;;;5063643;28;20457;-77
2023/05/13 06:20:12;;;;;;;29.73;6.90;;;;;;;;;;5063126;28;20048;-78
2023/05/13 06:22:40;;;;;;;15.40;6.40;;;;;;;;;;5063168;28;20055;-77
2023/05/13 06:25:06;;;;;;;34.47;6.50;;;;;;;;;;5066519;28;20020;-77
2023/05/13 06:27:32;;;;;;;47.25;8.27;;;;;;;;;;5064152;28;20790;-77
2023/05/13 06:29:59;;;;;;;42.53;7.38;;;;;;;;;;5066215;28;20040;-77
2023/05/13 06:32:25;;;;;;;39.85;7.68;;;;;;;;;;5053116;28;20025;-78
2023/05/13 06:34:51;;;;;;;20.92;6.90;;;;;;;;;;5065572;28;20482;-77
2023/05/13 06:37:18;;;;;;;17.38;6.25;;;;;;;;;;5065084;28;20029;-77
2023/05/13 06:39:45;;;;;;;27.65;7.15;;;;;;;;;;5060120;28;20092;-77
2023/05/13 06:42:11;;;;;;;42.63;8.30;;;;;;;;;;5065293;28;20020;-77
2023/05/13 06:44:38;;;;;;;34.90;8.07;;;;;;;;;;5065218;28;20059;-77
2023/05/13 06:47:04;;;;;;;14.90;6.45;;;;;;;;;;5066067;28;20028;-76
2023/05/13 06:49:32;;;;;;;23.65;7.30;;;;;;;;;;5066273;28;20170;-75
2023/05/13 06:51:58;;;;;;;10.32;5.85;;;;;;;;;;5061449;28;20032;-76
2023/05/13 06:54:26;;;;;;;12.15;6.13;;;;;;;;;;5067905;28;20025;-77
2023/05/13 06:56:53;;;;;;;9.23;6.03;;;;;;;;;;5063937;28;20051;-76
2023/05/13 06:59:21;;;;;;;11.23;6.45;;;;;;;;;;5062605;28;20024;-76
2023/05/13 07:01:47;;;;;;;33.08;6.40;;;;;;;;;;5055755;28;20383;-75
2023/05/13 07:04:13;;;;;;;65.88;8.23;;;;;;;;;;5053286;28;20082;-77
2023/05/13 07:06:40;;;;;;;18.50;5.55;;;;;;;;;;5068814;28;20021;-78
2023/05/13 07:09:08;;;;;;;26.45;6.22;;;;;;;;;;5058835;28;20027;-75
2023/05/13 07:11:34;;;;;;;12.98;5.70;;;;;;;;;;5063169;28;20016;-77
2023/05/13 07:14:00;;;;;;;55.00;8.20;;;;;;;;;;5071635;28;20107;-78
2023/05/13 07:16:26;;;;;;;25.17;5.88;;;;;;;;;;5076630;28;20447;-75
2023/05/13 07:18:53;;;;;;;61.45;6.97;;;;;;;;;;5070349;28;20025;-76
2023/05/13 07:21:20;;;;;;;21.15;6.53;;;;;;;;;;5074504;28;20366;-77
2023/05/13 07:23:46;;;;;;;60.72;8.82;;;;;;;;;;5070482;28;20035;-78
2023/05/13 07:26:12;;;;;;;41.05;7.70;;;;;;;;;;5072845;28;20069;-77
2023/05/13 07:28:38;;;;;;;15.88;5.90;;;;;;;;;;5068868;28;20123;-78
2023/05/13 07:31:05;;;;;;;16.20;5.65;;;;;;;;;;5067787;28;20021;-74
2023/05/13 07:33:31;;;;;;;25.88;6.47;;;;;;;;;;5071985;28;20055;-77
2023/05/13 07:35:57;;;;;;;12.35;5.00;;;;;;;;;;5072746;28;20028;-76
2023/05/13 07:38:23;;;;;;;15.05;6.05;;;;;;;;;;5070883;28;20049;-77
2023/05/13 07:40:49;;;;;;;42.55;7.18;;;;;;;;;;5062046;28;20482;-77
2023/05/13 07:43:22;;;;;;;22.05;7.07;;;;;;;;;;5060115;28;20037;-78
2023/05/13 07:45:48;;;;;;;32.22;7.22;;;;;;;;;;5061207;28;20692;-77
2023/05/13 07:48:14;;;;;;;13.13;5.78;;;;;;;;;;5071687;28;20012;-78
2023/05/13 07:50:41;;;;;;;11.77;6.10;;;;;;;;;;5065569;28;20448;-77
2023/05/13 07:53:07;;;;;;;21.90;6.13;;;;;;;;;;5065961;28;20722;-77
2023/05/13 07:55:33;;;;;;;8.07;5.47;;;;;;;;;;5089962;28;20020;-78
2023/05/13 07:57:59;;;;;;;15.43;6.10;;;;;;;;;;5077683;28;20036;-77
2023/05/13 08:00:27;;;;;;;11.95;6.90;;;;;;;;;;5065593;28;20032;-77
2023/05/13 08:02:54;;;;;;;7.88;5.72;;;;;;;;;;5066599;28;20135;-77
2023/05/13 08:05:21;;;;;;;11.82;5.82;;;;;;;;;;5066698;28;20016;-77
2023/05/13 08:07:47;;;;;;;13.93;6.55;;;;;;;;;;5069424;28;21407;-78
2023/05/13 08:10:13;;;;;;;12.73;6.75;;;;;;;;;;5066015;28;20025;-78
2023/05/13 08:12:39;;;;;;;8.55;6.13;;;;;;;;;;5065847;28;20024;-78
2023/05/13 08:15:06;;;;;;;9.40;6.72;;;;;;;;;;5080744;28;20051;-78
2023/05/13 08:17:32;;;;;;;10.10;6.03;;;;;;;;;;5073013;28;20028;-78
2023/05/13 08:20:00;;;;;;;9.70;6.43;;;;;;;;;;5065185;28;20045;-78
2023/05/13 08:22:26;;;;;;;6.60;5.78;;;;;;;;;;5068914;28;20146;-78
2023/05/13 08:24:53;;;;;;;9.32;6.97;;;;;;;;;;5079181;28;20097;-78
2023/05/13 08:27:19;;;;;;;8.45;6.18;;;;;;;;;;5068699;28;20086;-78
2023/05/13 08:29:49;;;;;;;10.50;6.57;;;;;;;;;;5063570;28;20108;-78
2023/05/13 08:32:15;;;;;;;10.90;7.22;;;;;;;;;;5063859;28;20021;-78
2023/05/13 08:34:41;;;;;;;8.27;6.90;;;;;;;;;;5057807;28;20074;-79
2023/05/13 08:37:07;;;;;;;8.20;6.55;;;;;;;;;;5060300;28;20028;-77
2023/05/13 08:39:33;;;;;;;9.73;7.18;;;;;;;;;;5067089;28;20096;-78
2023/05/13 08:42:02;;;;;;;9.10;6.63;;;;;;;;;;5061885;28;20044;-77
2023/05/13 08:44:28;;;;;;;8.48;6.68;;;;;;;;;;5066147;28;20082;-78
2023/05/13 08:47:21;;;;;;;8.93;6.00;;;;;;;;;;5066784;28;20028;-78
2023/05/13 08:49:47;;;;;;;7.70;6.28;;;;;;;;;;5055561;28;20199;-77
2023/05/13 08:52:14;;;;;;;8.15;6.80;;;;;;;;;;5083881;28;20518;-78
2023/05/13 08:54:43;;;;;;;8.10;6.07;;;;;;;;;;5067880;28;20033;-78
2023/05/13 08:57:10;;;;;;;8.23;5.97;;;;;;;;;;5065110;28;20138;-78
2023/05/13 08:59:36;;;;;;;7.97;6.00;;;;;;;;;;5068376;28;20044;-78
2023/05/13 09:02:03;;;;;;;9.57;7.13;;;;;;;;;;5067911;28;20932;-78
2023/05/13 09:04:29;;;;;;;8.57;6.60;;;;;;;;;;5073030;28;20039;-78
2023/05/13 09:06:56;;;;;;;9.73;6.28;;;;;;;;;;5064926;28;20062;-78
2023/05/13 09:09:22;;;;;;;6.90;6.20;;;;;;;;;;5054611;28;20021;-78
2023/05/13 09:11:48;;;;;;;8.30;5.93;;;;;;;;;;5061407;28;20066;-78
2023/05/13 09:14:18;;;;;;;8.60;6.38;;;;;;;;;;5064719;28;20475;-78
2023/05/13 09:16:44;;;;;;;8.45;6.13;;;;;;;;;;5061240;28;20028;-77
2023/05/13 09:19:10;;;;;;;9.50;6.68;;;;;;;;;;5066878;28;20060;-77
2023/05/13 09:21:37;;;;;;;7.00;5.93;;;;;;;;;;5065250;28;20048;-78
2023/05/13 09:24:11;;;;;;;8.90;6.57;;;;;;;;;;5055898;28;20036;-75
2023/05/13 09:26:38;;;;;;;8.10;6.38;;;;;;;;;;5066220;28;20027;-78
2023/05/13 09:29:42;;;;;;;8.73;6.30;;;;;;;;;;5066851;28;20029;-78
2023/05/13 09:32:09;;;;;;;6.93;5.97;;;;;;;;;;5023014;28;20030;-77
2023/05/13 09:34:35;;;;;;;9.35;7.40;;;;;;;;;;5026137;28;20116;-77
2023/05/13 09:37:02;;;;;;;10.18;6.18;;;;;;;;;;5039372;28;20126;-76
2023/05/13 09:39:30;;;;;;;8.68;6.97;;;;;;;;;;5060962;28;20024;-78
2023/05/13 09:41:56;;;;;;;9.50;6.80;;;;;;;;;;5060496;28;20129;-78
2023/05/13 09:44:22;;;;;;;8.68;7.05;;;;;;;;;;5071227;28;20067;-79
2023/05/13 09:46:50;;;;;;;10.27;6.95;;;;;;;;;;5068996;28;20035;-77
2023/05/13 09:49:16;;;;;;;8.82;6.60;;;;;;;;;;5069389;28;20485;-78
2023/05/13 09:51:44;;;;;;;10.93;6.85;;;;;;;;;;5063716;28;20037;-78
2023/05/13 09:54:10;;;;;;;13.93;9.02;;;;;;;;;;5067397;28;20021;-78
2023/05/13 09:56:36;;;;;;;12.77;9.70;;;;;;;;;;5064813;28;20051;-77
2023/05/13 09:59:03;;;;;;;13.25;8.63;;;;;;;;;;5065961;28;20025;-78
2023/05/13 10:01:30;;;;;;;13.10;9.70;;;;;;;;;;5066239;28;20034;-78
2023/05/13 10:04:00;;;;;;;17.15;9.50;;;;;;;;;;5067722;28;20812;-78
2023/05/13 10:06:27;;;;;;;17.23;10.93;;;;;;;;;;5067745;28;20024;-79
2023/05/13 10:08:53;;;;;;;16.38;9.70;;;;;;;;;;5066043;28;20020;-79
2023/05/13 10:11:20;;;;;;;16.40;10.68;;;;;;;;;;5069441;28;20810;-78
2023/05/13 10:13:49;;;;;;;16.30;10.25;;;;;;;;;;5066927;28;20021;-78
2023/05/13 10:16:17;;;;;;;21.40;11.60;;;;;;;;;;5065356;28;20036;-78
2023/05/13 10:18:43;;;;;;;19.90;11.05;;;;;;;;;;5059658;28;20106;-78
2023/05/13 10:21:09;;;;;;;24.75;12.60;;;;;;;;;;5061441;28;20497;-78
2023/05/13 10:23:36;;;;;;;23.00;12.00;;;;;;;;;;5054834;28;20041;-78
2023/05/13 10:26:02;;;;;;;20.30;12.25;;;;;;;;;;5060786;28;20086;-77
2023/05/13 10:28:28;;;;;;;18.88;12.27;;;;;;;;;;5060685;28;20029;-77
2023/05/13 10:30:55;;;;;;;15.77;10.02;;;;;;;;;;5062324;28;20115;-78
2023/05/13 10:33:21;;;;;;;15.93;11.10;;;;;;;;;;5059265;28;20024;-77
2023/05/13 10:35:53;;;;;;;12.55;8.85;;;;;;;;;;5061650;28;20084;-77
2023/05/13 10:38:25;;;;;;;14.15;9.68;;;;;;;;;;5060439;28;20703;-78
2023/05/13 10:41:08;;;;;;;12.98;9.30;;;;;;;;;;5063973;28;20439;-77
2023/05/13 10:43:34;;;;;;;10.90;7.95;;;;;;;;;;5063091;28;20492;-78
2023/05/13 10:46:05;;;;;;;9.75;8.23;;;;;;;;;;5065265;28;20059;-78
2023/05/13 10:48:41;;;;;;;9.75;7.82;;;;;;;;;;5069683;28;20024;-78
2023/05/13 10:51:09;;;;;;;10.63;8.45;;;;;;;;;;5063922;28;20107;-76
2023/05/13 10:53:37;;;;;;;12.90;8.88;;;;;;;;;;5071445;28;20020;-78
2023/05/13 10:56:06;;;;;;;12.88;8.75;;;;;;;;;;5064943;28;20033;-78
2023/05/13 10:58:35;;;;;;;11.57;8.98;;;;;;;;;;5067660;28;20025;-78
2023/05/13 11:01:17;;;;;;;11.35;8.05;;;;;;;;;;5071225;28;20024;-78
2023/05/13 11:03:53;;;;;;;11.05;7.97;;;;;;;;;;5080689;28;20470;-78
2023/05/13 11:06:22;;;;;;;8.70;7.53;;;;;;;;;;5076127;28;20085;-78
2023/05/13 11:08:49;;;;;;;8.88;7.32;;;;;;;;;;5067480;28;20029;-78
2023/05/13 11:11:22;;;;;;;10.43;7.75;;;;;;;;;;5082757;28;20028;-78
2023/05/13 11:14:07;;;;;;;9.55;7.13;;;;;;;;;;5073980;28;20024;-78
2023/05/13 11:16:34;;;;;;;9.93;7.57;;;;;;;;;;5071210;28;20251;-78
2023/05/13 11:19:02;;;;;;;8.65;6.78;;;;;;;;;;5076666;28;20032;-79
2023/05/13 11:21:40;;;;;;;11.95;7.57;;;;;;;;;;5068132;28;20028;-77
2023/05/13 11:24:07;;;;;;;8.35;6.78;;;;;;;;;;5070793;28;20028;-77
2023/05/13 11:26:53;;;;;;;7.85;6.40;;;;;;;;;;5085404;28;20052;-78
2023/05/13 11:29:29;;;;;;;8.43;6.60;;;;;;;;;;5072128;28;20028;-79
2023/05/13 11:31:57;;;;;;;8.15;7.13;;;;;;;;;;5068938;28;20028;-79
2023/05/13 11:34:26;;;;;;;7.85;6.50;;;;;;;;;;5066739;28;20027;-79
2023/05/13 11:36:56;;;;;;;7.80;6.40;;;;;;;;;;5070266;28;20033;-79
2023/05/13 11:39:22;;;;;;;7.47;6.28;;;;;;;;;;5069198;28;20073;-79
2023/05/13 11:41:49;;;;;;;9.50;6.40;;;;;;;;;;5070667;28;20055;-78
2023/05/13 11:44:22;;;;;;;9.25;7.68;;;;;;;;;;5061754;28;20164;-79
2023/05/13 11:46:49;;;;;;;7.25;6.30;;;;;;;;;;5067628;28;20094;-79
2023/05/13 11:49:32;;;;;;;6.45;5.85;;;;;;;;;;5075759;28;20032;-78
2023/05/13 11:52:02;;;;;;;7.85;6.88;;;;;;;;;;5073199;28;20028;-79
2023/05/13 11:54:28;;;;;;;8.70;6.75;;;;;;;;;;5071045;28;20025;-79
2023/05/13 11:56:55;;;;;;;8.45;6.63;;;;;;;;;;5067993;28;20054;-78
2023/05/13 11:59:21;;;;;;;7.60;6.72;;;;;;;;;;5078397;28;20487;-80
2023/05/13 12:01:59;;;;;;;7.57;6.10;;;;;;;;;;5063488;28;20103;-79
2023/05/13 12:04:28;;;;;;;8.80;6.63;;;;;;;;;;5064377;28;20121;-79
2023/05/13 12:06:54;;;;;;;7.18;6.40;;;;;;;;;;5065581;28;20028;-78
2023/05/13 12:09:24;;;;;;;8.93;5.93;;;;;;;;;;5066987;28;20029;-79
2023/05/13 12:11:53;;;;;;;7.35;6.00;;;;;;;;;;5067415;28;20028;-78
2023/05/13 12:14:20;;;;;;;6.00;5.40;;;;;;;;;;5062001;28;20037;-79
2023/05/13 12:16:47;;;;;;;6.07;5.30;;;;;;;;;;5062846;28;20073;-80
2023/05/13 12:19:13;;;;;;;7.55;5.68;;;;;;;;;;5068883;28;20449;-80
2023/05/13 12:21:39;;;;;;;6.55;5.75;;;;;;;;;;5056902;28;20045;-78
2023/05/13 12:24:24;;;;;;;6.85;6.13;;;;;;;;;;5064810;28;20032;-78
2023/05/13 12:26:50;;;;;;;5.85;5.28;;;;;;;;;;5087759;28;20016;-79
2023/05/13 12:29:16;;;;;;;6.53;5.78;;;;;;;;;;5066330;28;20398;-78
2023/05/13 12:31:43;;;;;;;5.43;4.88;;;;;;;;;;5061043;28;20028;-79
2023/05/13 12:34:12;;;;;;;6.22;4.95;;;;;;;;;;5070444;28;20222;-78
2023/05/13 12:36:39;;;;;;;6.00;5.22;;;;;;;;;;5063992;28;20029;-78
2023/05/13 12:39:06;;;;;;;6.32;5.65;;;;;;;;;;5063272;28;20406;-79
2023/05/13 12:41:33;;;;;;;6.60;5.70;;;;;;;;;;5059724;28;20031;-79
2023/05/13 12:44:01;;;;;;;5.82;5.22;;;;;;;;;;5060763;28;20877;-78
2023/05/13 12:46:28;;;;;;;5.43;4.88;;;;;;;;;;5061800;28;20028;-78
2023/05/13 12:48:57;;;;;;;5.15;4.65;;;;;;;;;;5063046;28;19996;-78
2023/05/13 12:51:23;;;;;;;4.88;4.40;;;;;;;;;;5065502;28;20035;-79
2023/05/13 12:53:52;;;;;;;4.78;4.28;;;;;;;;;;5062115;28;20029;-78
2023/05/13 12:56:18;;;;;;;5.40;4.90;;;;;;;;;;5063857;28;20048;-78
2023/05/13 12:58:45;;;;;;;4.68;4.20;;;;;;;;;;5061567;28;20055;-81
2023/05/13 13:01:11;;;;;;;5.15;4.15;;;;;;;;;;5067432;28;20096;-79
2023/05/13 13:03:37;;;;;;;4.15;3.70;;;;;;;;;;5068075;28;20109;-79
2023/05/13 13:06:03;;;;;;;5.00;4.50;;;;;;;;;;5067096;28;20036;-79
2023/05/13 13:08:30;;;;;;;4.13;3.45;;;;;;;;;;5061406;28;20820;-78
2023/05/13 13:10:59;;;;;;;5.95;3.75;;;;;;;;;;5062132;28;20031;-79
2023/05/13 13:13:25;;;;;;;5.00;3.50;;;;;;;;;;5062541;28;20047;-78
2023/05/13 13:15:52;;;;;;;5.18;4.28;;;;;;;;;;5062997;28;20036;-79
2023/05/13 13:18:18;;;;;;;5.55;4.57;;;;;;;;;;5061741;28;20036;-78
2023/05/13 13:20:44;;;;;;;6.97;4.60;;;;;;;;;;5068696;28;20032;-79
2023/05/13 13:23:10;;;;;;;4.95;4.13;;;;;;;;;;5064994;28;20090;-79
2023/05/13 13:25:37;;;;;;;4.57;3.72;;;;;;;;;;5062794;28;20059;-79
2023/05/13 13:28:03;;;;;;;5.80;4.45;;;;;;;;;;5066439;28;20089;-79
2023/05/13 13:30:29;;;;;;;5.50;4.90;;;;;;;;;;5059822;28;20074;-80
2023/05/13 13:32:56;;;;;;;5.35;4.85;;;;;;;;;;5060829;28;20561;-79
2023/05/13 13:35:22;;;;;;;7.10;5.70;;;;;;;;;;5064354;28;20040;-79
2023/05/13 13:37:48;;;;;;;6.10;5.38;;;;;;;;;;5064974;28;20081;-79
2023/05/13 13:40:14;;;;;;;6.75;5.65;;;;;;;;;;5064269;28;20032;-79
2023/05/13 13:42:40;;;;;;;5.00;4.25;;;;;;;;;;5064322;28;20115;-80
2023/05/13 13:45:07;;;;;;;5.43;4.47;;;;;;;;;;5065244;28;20051;-79
2023/05/13 13:47:33;;;;;;;4.53;4.07;;;;;;;;;;5065501;28;20021;-79
2023/05/13 13:50:00;;;;;;;3.88;3.47;;;;;;;;;;5063646;28;20033;-79
2023/05/13 13:52:27;;;;;;;5.53;4.38;;;;;;;;;;5062494;28;20021;-79
2023/05/13 13:54:53;;;;;;;4.60;4.10;;;;;;;;;;5064061;28;20029;-79
2023/05/13 13:57:19;;;;;;;4.70;4.00;;;;;;;;;;5062893;28;20789;-79
2023/05/13 13:59:46;;;;;;;3.45;3.10;;;;;;;;;;5063846;28;20458;-79
2023/05/13 14:02:12;;;;;;;4.10;3.70;;;;;;;;;;5055656;28;20044;-79
2023/05/13 14:04:38;;;;;;;5.40;3.55;;;;;;;;;;5064093;28;20070;-79
2023/05/13 14:07:04;;;;;;;4.00;3.60;;;;;;;;;;5067478;28;20024;-79
2023/05/13 14:09:31;;;;;;;3.85;3.35;;;;;;;;;;5061203;28;20074;-78
2023/05/13 14:11:58;;;;;;;6.30;3.20;;;;;;;;;;5061295;28;20051;-79
2023/05/13 14:14:25;;;;;;;5.47;2.80;;;;;;;;;;5078576;28;20104;-79
2023/05/13 14:16:51;;;;;;;4.55;3.03;;;;;;;;;;5061268;28;20055;-79
2023/05/13 14:19:17;;;;;;;4.05;3.20;;;;;;;;;;5060713;28;20036;-79
2023/05/13 14:21:45;;;;;;;3.40;3.08;;;;;;;;;;5063862;28;20080;-79
2023/05/13 14:24:11;;;;;;;3.40;3.10;;;;;;;;;;5059817;28;20300;-80
2023/05/13 14:26:41;;;;;;;3.90;2.85;;;;;;;;;;5063467;28;20072;-79
2023/05/13 14:29:08;;;;;;;3.85;3.20;;;;;;;;;;5064158;28;20478;-79
2023/05/13 14:31:34;;;;;;;3.50;3.20;;;;;;;;;;5061737;28;20024;-80
2023/05/13 14:34:00;;;;;;;5.15;3.20;;;;;;;;;;5058845;28;20032;-79
2023/05/13 14:36:26;;;;;;;3.80;3.15;;;;;;;;;;5060986;28;20399;-79